Time;durP1;ratioP1;P1;durP2;ratioP2;P2;SDS_P1;SDS_P2;PMS_P1;PMS_P2;Temp;Humidity;BMP_temperature;BMP_pressure;BME280_temperature;BME280_humidity;BME280_pressure;Samples;Min_cycle;Max_cycle;Signal;HPM_P1;HPM_P2
2022/08/31 00:04:01;;;;;;;4.90;2.10;;;13.50;99.90;;;;;;5012790;28;20068;-74
2022/08/31 00:06:27;;;;;;;5.22;2.10;;;13.50;99.90;;;;;;5012952;28;20395;-74
2022/08/31 00:08:52;;;;;;;3.50;2.03;;;13.50;99.90;;;;;;5012239;28;20021;-74
2022/08/31 00:11:26;;;;;;;6.95;2.40;;;13.50;99.90;;;;;;5013010;28;20033;-74
2022/08/31 00:13:54;;;;;;;5.72;2.03;;;13.70;99.90;;;;;;5012817;28;20022;-74
2022/08/31 00:16:20;;;;;;;4.70;2.00;;;13.70;99.90;;;;;;5012068;28;20390;-74
2022/08/31 00:18:46;;;;;;;4.60;2.00;;;13.70;99.90;;;;;;5013357;28;20088;-74
2022/08/31 00:21:11;;;;;;;3.92;2.13;;;13.70;99.90;;;;;;5013345;28;20033;-74
2022/08/31 00:23:37;;;;;;;2.60;1.90;;;13.80;99.90;;;;;;5013068;28;20084;-74
2022/08/31 00:26:03;;;;;;;3.90;1.90;;;13.80;99.90;;;;;;5013156;28;20029;-74
2022/08/31 00:28:29;;;;;;;2.80;2.00;;;13.80;99.90;;;;;;5012875;28;20393;-74
2022/08/31 00:30:54;;;;;;;4.72;2.25;;;13.90;99.90;;;;;;5011972;28;20029;-74
2022/08/31 00:33:20;;;;;;;4.97;2.38;;;13.90;99.90;;;;;;5012856;28;20026;-74
2022/08/31 00:35:46;;;;;;;3.58;1.92;;;13.90;99.90;;;;;;5012864;28;20030;-74
2022/08/31 00:38:12;;;;;;;7.57;2.00;;;13.90;99.90;;;;;;5013083;28;20029;-74
2022/08/31 00:40:38;;;;;;;3.58;1.73;;;13.90;99.90;;;;;;5012905;28;20058;-74
2022/08/31 00:43:04;;;;;;;4.88;1.80;;;13.90;99.90;;;;;;5012838;28;20115;-74
2022/08/31 00:45:29;;;;;;;5.63;2.08;;;13.90;99.90;;;;;;4988416;28;20081;-74
2022/08/31 00:47:55;;;;;;;4.43;1.50;;;13.90;99.90;;;;;;4992047;28;20030;-74
2022/08/31 00:50:23;;;;;;;2.67;1.67;;;13.90;99.90;;;;;;4990295;28;20104;-74
2022/08/31 00:52:54;;;;;;;3.97;1.60;;;13.90;99.90;;;;;;4992883;28;20382;-74
2022/08/31 00:55:29;;;;;;;5.53;1.63;;;13.80;99.90;;;;;;4992881;28;20037;-74
2022/08/31 00:57:58;;;;;;;3.97;1.88;;;13.80;99.90;;;;;;4992760;28;20033;-74
2022/08/31 01:00:26;;;;;;;4.40;1.58;;;13.90;99.90;;;;;;4993863;28;20112;-74
2022/08/31 01:02:52;;;;;;;3.63;1.45;;;13.90;99.90;;;;;;5011727;28;20096;-74
2022/08/31 01:05:18;;;;;;;4.65;1.80;;;13.90;99.90;;;;;;5012275;28;20033;-74
2022/08/31 01:07:49;;;;;;;5.55;1.83;;;13.80;99.90;;;;;;5012403;28;20021;-74
2022/08/31 01:10:17;;;;;;;9.27;1.88;;;13.90;99.90;;;;;;5011027;28;20025;-74
2022/08/31 01:12:46;;;;;;;4.38;1.45;;;13.90;99.90;;;;;;5012532;28;20045;-74
2022/08/31 01:15:13;;;;;;;3.08;2.00;;;13.80;99.90;;;;;;5012164;28;20065;-74
2022/08/31 01:17:39;;;;;;;2.05;1.45;;;13.80;99.90;;;;;;5011270;28;20459;-74
2022/08/31 01:20:30;;;;;;;6.43;1.98;;;13.80;99.90;;;;;;5012158;28;20387;-74
2022/08/31 01:23:18;;;;;;;2.45;1.40;;;13.70;99.90;;;;;;5010650;28;20040;-74
2022/08/31 01:25:46;;;;;;;5.72;2.20;;;13.70;99.90;;;;;;5011765;28;20544;-74
2022/08/31 01:28:12;;;;;;;4.13;1.48;;;13.60;99.90;;;;;;5012163;28;20030;-74
2022/08/31 01:30:39;;;;;;;3.95;1.42;;;13.60;99.90;;;;;;5012125;28;20092;-74
2022/08/31 01:33:06;;;;;;;2.83;1.33;;;13.60;99.90;;;;;;5011985;28;20088;-74
2022/08/31 01:35:32;;;;;;;4.57;1.48;;;13.60;99.90;;;;;;5011697;28;20033;-74
2022/08/31 01:37:58;;;;;;;2.13;1.30;;;13.60;99.90;;;;;;5011935;28;20018;-74
2022/08/31 01:40:43;;;;;;;1.85;1.30;;;13.60;99.90;;;;;;5011724;28;20171;-74
2022/08/31 01:43:08;;;;;;;3.28;1.13;;;13.50;99.90;;;;;;5011857;28;20042;-74
2022/08/31 01:45:34;;;;;;;3.92;1.67;;;13.50;99.90;;;;;;5012110;28;20033;-74
2022/08/31 01:48:00;;;;;;;3.38;1.80;;;13.40;99.90;;;;;;5011685;28;20034;-74
2022/08/31 01:50:26;;;;;;;1.95;1.52;;;13.40;99.90;;;;;;5011630;28;20026;-74
2022/08/31 01:52:51;;;;;;;3.00;1.42;;;13.30;99.90;;;;;;5011702;28;20541;-74
2022/08/31 01:55:17;;;;;;;3.40;1.75;;;13.30;99.90;;;;;;5011384;28;20034;-74
2022/08/31 01:57:43;;;;;;;3.75;1.30;;;13.30;99.90;;;;;;5011409;28;20101;-74
2022/08/31 02:00:09;;;;;;;4.90;1.23;;;13.30;99.90;;;;;;5011332;28;20117;-74
2022/08/31 02:02:35;;;;;;;5.32;1.95;;;13.30;99.90;;;;;;5011065;28;20038;-74
2022/08/31 02:05:01;;;;;;;3.08;1.23;;;13.20;99.90;;;;;;5010978;28;20084;-74
2022/08/31 02:07:27;;;;;;;4.45;1.20;;;13.20;99.90;;;;;;5010992;28;20076;-74
2022/08/31 02:09:53;;;;;;;4.18;1.60;;;13.10;99.90;;;;;;5009789;28;20052;-74
2022/08/31 02:12:18;;;;;;;3.97;1.42;;;13.10;99.90;;;;;;5011488;28;20061;-74
2022/08/31 02:14:44;;;;;;;2.47;1.27;;;13.00;99.90;;;;;;5010503;28;20371;-74
2022/08/31 02:17:10;;;;;;;5.32;2.00;;;13.00;99.90;;;;;;5010903;28;20037;-74
2022/08/31 02:19:35;;;;;;;3.35;1.08;;;13.10;99.90;;;;;;5011426;28;20046;-74
2022/08/31 02:22:01;;;;;;;3.28;1.10;;;13.10;99.90;;;;;;5011079;28;20042;-74
2022/08/31 02:24:27;;;;;;;4.38;1.80;;;13.10;99.90;;;;;;5010993;28;20030;-74
2022/08/31 02:26:52;;;;;;;3.45;1.30;;;13.00;99.90;;;;;;5009846;28;20045;-74
2022/08/31 02:29:18;;;;;;;4.22;1.30;;;13.00;99.90;;;;;;5010667;28;20026;-74
2022/08/31 02:31:44;;;;;;;11.13;2.13;;;13.00;99.90;;;;;;5010730;28;20085;-74
2022/08/31 02:34:09;;;;;;;6.10;1.33;;;13.00;99.90;;;;;;5013583;28;20030;-74
2022/08/31 02:36:35;;;;;;;3.13;1.20;;;12.90;99.90;;;;;;5013833;28;20557;-74
2022/08/31 02:39:01;;;;;;;2.42;1.20;;;12.90;99.90;;;;;;5015004;28;20069;-74
2022/08/31 02:41:27;;;;;;;4.10;1.60;;;12.80;99.90;;;;;;5014749;28;20521;-74
2022/08/31 02:43:53;;;;;;;3.83;1.45;;;12.80;99.90;;;;;;5015227;28;20068;-74
2022/08/31 02:46:19;;;;;;;6.40;1.52;;;12.70;99.90;;;;;;5013785;28;20101;-74
2022/08/31 02:48:44;;;;;;;3.97;1.13;;;12.80;99.90;;;;;;5013532;28;20049;-74
2022/08/31 02:51:12;;;;;;;5.68;1.30;;;12.80;99.90;;;;;;5013946;28;20032;-73
2022/08/31 02:53:38;;;;;;;2.95;1.50;;;12.70;99.90;;;;;;5014779;28;20096;-74
2022/08/31 02:56:06;;;;;;;3.78;1.63;;;12.70;99.90;;;;;;5014847;28;20022;-74
2022/08/31 02:58:32;;;;;;;3.13;1.50;;;12.60;99.90;;;;;;5014575;28;20089;-74
2022/08/31 03:00:58;;;;;;;1.83;1.02;;;12.70;99.90;;;;;;5014105;28;20512;-74
2022/08/31 03:03:24;;;;;;;8.05;1.30;;;12.60;99.90;;;;;;5014693;28;20072;-74
2022/08/31 03:05:49;;;;;;;2.83;1.10;;;12.60;99.90;;;;;;5013214;28;20080;-74
2022/08/31 03:08:15;;;;;;;2.70;1.52;;;12.60;99.90;;;;;;5013451;28;20117;-74
2022/08/31 03:10:41;;;;;;;2.50;1.10;;;12.60;99.90;;;;;;5014003;28;20029;-74
2022/08/31 03:13:06;;;;;;;4.57;1.20;;;12.60;99.90;;;;;;5014292;28;20022;-74
2022/08/31 03:15:32;;;;;;;4.07;1.38;;;12.70;99.90;;;;;;5014229;28;20074;-74
2022/08/31 03:17:58;;;;;;;2.47;1.35;;;12.70;99.90;;;;;;5014240;28;20026;-74
2022/08/31 03:20:25;;;;;;;1.80;1.17;;;12.70;99.90;;;;;;5012851;28;20077;-74
2022/08/31 03:22:51;;;;;;;3.60;1.40;;;12.80;99.90;;;;;;5014170;28;20483;-74
2022/08/31 03:25:18;;;;;;;2.13;1.15;;;12.80;99.90;;;;;;5014261;28;20022;-74
2022/08/31 03:27:45;;;;;;;3.65;1.00;;;12.80;99.90;;;;;;5013963;28;20550;-74
2022/08/31 03:30:13;;;;;;;3.25;1.60;;;12.80;99.90;;;;;;5012832;28;20364;-74
2022/08/31 03:32:39;;;;;;;5.53;1.25;;;12.90;99.90;;;;;;5014194;28;20018;-73
2022/08/31 03:35:06;;;;;;;2.97;1.40;;;12.90;99.90;;;;;;5013705;28;20022;-74
2022/08/31 03:37:32;;;;;;;4.25;1.40;;;12.90;99.90;;;;;;5013732;28;20429;-74
2022/08/31 03:39:58;;;;;;;7.03;1.60;;;12.90;99.90;;;;;;5013703;28;20067;-74
2022/08/31 03:42:25;;;;;;;13.00;1.50;;;12.90;99.90;;;;;;5013695;28;20128;-74
2022/08/31 03:44:50;;;;;;;4.13;1.10;;;12.90;99.90;;;;;;5014035;28;20471;-74
2022/08/31 03:47:16;;;;;;;3.13;0.95;;;12.90;99.90;;;;;;5013738;28;20028;-74
2022/08/31 03:49:42;;;;;;;2.38;1.15;;;12.90;99.90;;;;;;5013316;28;20026;-74
2022/08/31 03:52:08;;;;;;;1.67;1.23;;;12.90;99.90;;;;;;5013709;28;20057;-74
2022/08/31 03:54:34;;;;;;;4.72;1.00;;;13.00;99.90;;;;;;5013886;28;20061;-74
2022/08/31 03:57:00;;;;;;;3.03;1.13;;;13.00;99.90;;;;;;5012483;28;20030;-74
2022/08/31 03:59:26;;;;;;;2.78;1.10;;;13.00;99.90;;;;;;5013389;28;20124;-74
2022/08/31 04:01:51;;;;;;;5.43;1.45;;;13.00;99.90;;;;;;5011025;28;20029;-74
2022/08/31 04:04:17;;;;;;;4.15;1.10;;;13.00;99.90;;;;;;5013085;28;20068;-74
2022/08/31 04:06:43;;;;;;;2.78;1.23;;;13.00;99.90;;;;;;5013398;28;20037;-74
2022/08/31 04:09:10;;;;;;;3.15;1.20;;;13.00;99.90;;;;;;5012861;28;20029;-74
2022/08/31 04:11:39;;;;;;;1.80;1.10;;;13.00;99.90;;;;;;5011904;28;20022;-74
2022/08/31 04:14:05;;;;;;;4.75;1.02;;;13.00;99.90;;;;;;5013274;28;20054;-74
2022/08/31 04:16:32;;;;;;;3.35;1.42;;;13.00;99.90;;;;;;5013394;28;20433;-74
2022/08/31 04:18:58;;;;;;;4.63;1.20;;;12.90;99.90;;;;;;5013293;28;20465;-74
2022/08/31 04:21:26;;;;;;;2.63;1.10;;;12.80;99.90;;;;;;5013093;28;20060;-74
2022/08/31 04:23:53;;;;;;;2.38;1.35;;;12.80;99.90;;;;;;5012996;28;20604;-74
2022/08/31 04:26:24;;;;;;;2.45;1.13;;;12.80;99.90;;;;;;5011244;28;20068;-74
2022/08/31 04:28:50;;;;;;;4.03;1.20;;;12.80;99.90;;;;;;5012587;28;20109;-74
2022/08/31 04:31:17;;;;;;;9.32;1.50;;;12.80;99.90;;;;;;5012516;28;20101;-74
2022/08/31 04:33:43;;;;;;;1.83;1.52;;;12.80;99.90;;;;;;5012658;28;20014;-74
2022/08/31 04:36:14;;;;;;;3.50;1.20;;;12.70;99.90;;;;;;5012692;28;20632;-74
2022/08/31 04:38:50;;;;;;;2.65;1.20;;;12.70;99.90;;;;;;5012676;28;20097;-74
2022/08/31 04:41:18;;;;;;;4.18;1.58;;;12.70;99.90;;;;;;5012065;28;20065;-74
2022/08/31 04:43:47;;;;;;;5.93;1.50;;;12.80;99.90;;;;;;5012568;28;20045;-74
2022/08/31 04:46:13;;;;;;;2.75;1.02;;;12.70;99.90;;;;;;5012696;28;20030;-74
2022/08/31 04:48:40;;;;;;;2.30;1.40;;;12.70;99.90;;;;;;5012527;28;20029;-74
2022/08/31 04:51:15;;;;;;;5.13;1.13;;;12.80;99.90;;;;;;5012254;28;20029;-74
2022/08/31 04:53:42;;;;;;;5.88;1.30;;;12.80;99.90;;;;;;5012483;28;20100;-74
2022/08/31 04:56:13;;;;;;;5.18;1.40;;;12.70;99.90;;;;;;5010297;28;20099;-74
2022/08/31 04:59:00;;;;;;;6.00;1.10;;;12.80;99.90;;;;;;5012471;28;20023;-74
2022/08/31 05:01:30;;;;;;;2.13;1.20;;;12.80;99.90;;;;;;5012473;28;20092;-74
2022/08/31 05:03:57;;;;;;;4.40;1.50;;;12.80;99.90;;;;;;5012487;28;20383;-73
2022/08/31 05:06:29;;;;;;;3.85;1.33;;;12.80;99.90;;;;;;5012389;28;20032;-74
2022/08/31 05:08:58;;;;;;;3.53;1.50;;;12.70;99.90;;;;;;5012291;28;20025;-73
2022/08/31 05:11:25;;;;;;;1.65;1.52;;;12.70;99.90;;;;;;5010989;28;20026;-74
2022/08/31 05:13:51;;;;;;;2.53;1.30;;;12.70;99.90;;;;;;5011982;28;20033;-74
2022/08/31 05:16:19;;;;;;;3.15;1.50;;;12.70;99.90;;;;;;5010259;28;20395;-74
2022/08/31 05:18:47;;;;;;;2.58;1.33;;;12.70;99.90;;;;;;5011917;28;20022;-74
2022/08/31 05:21:19;;;;;;;2.15;1.20;;;12.80;99.90;;;;;;5011780;28;20124;-73
2022/08/31 05:23:47;;;;;;;5.05;1.15;;;12.80;99.90;;;;;;5011874;28;20022;-74
2022/08/31 05:26:21;;;;;;;5.07;1.60;;;12.80;99.90;;;;;;5011579;28;20383;-74
2022/08/31 05:28:47;;;;;;;4.20;1.17;;;12.90;99.90;;;;;;5011957;28;20117;-74
2022/08/31 05:31:14;;;;;;;3.40;1.38;;;13.00;99.90;;;;;;5010988;28;20092;-74
2022/08/31 05:33:41;;;;;;;8.05;1.45;;;13.10;99.90;;;;;;5010624;28;20021;-74
2022/08/31 05:36:07;;;;;;;2.13;1.10;;;13.30;99.90;;;;;;5011874;28;20034;-74
2022/08/31 05:38:33;;;;;;;7.15;2.03;;;13.40;99.90;;;;;;5012008;28;20033;-74
2022/08/31 05:40:59;;;;;;;7.50;1.45;;;13.40;99.90;;;;;;5011186;28;20022;-74
2022/08/31 05:43:25;;;;;;;6.32;1.33;;;13.40;99.90;;;;;;5011570;28;20029;-74
2022/08/31 05:45:51;;;;;;;3.47;2.25;;;13.40;99.90;;;;;;5014695;23;20078;-74
2022/08/31 05:48:17;;;;;;;3.33;1.30;;;13.40;99.90;;;;;;4990927;28;20026;-74
2022/08/31 05:50:43;;;;;;;1.48;1.05;;;13.50;99.90;;;;;;4991640;28;20502;-74
2022/08/31 05:53:09;;;;;;;2.00;1.20;;;13.50;99.90;;;;;;4991999;28;20026;-74
2022/08/31 05:55:35;;;;;;;7.22;1.60;;;13.50;99.90;;;;;;4992200;28;20050;-74
2022/08/31 05:58:01;;;;;;;8.00;1.55;;;13.70;99.90;;;;;;4992026;28;20054;-74
2022/08/31 06:00:26;;;;;;;4.00;1.40;;;13.80;99.90;;;;;;4991711;28;20033;-74
2022/08/31 06:02:52;;;;;;;3.97;1.50;;;13.80;99.90;;;;;;4991687;28;20047;-74
2022/08/31 06:05:18;;;;;;;5.65;1.30;;;13.80;99.90;;;;;;4991603;28;20022;-74
2022/08/31 06:07:46;;;;;;;3.80;1.80;;;13.90;99.90;;;;;;4993299;28;20031;-74
2022/08/31 06:10:14;;;;;;;2.88;1.83;;;13.90;99.90;;;;;;4994926;28;20145;-74
2022/08/31 06:12:42;;;;;;;3.05;1.20;;;13.90;99.90;;;;;;4995860;28;20113;-74
2022/08/31 06:15:09;;;;;;;4.38;1.15;;;14.00;99.90;;;;;;4995559;28;20058;-74
2022/08/31 06:17:36;;;;;;;3.92;1.35;;;14.00;99.90;;;;;;4995762;28;20027;-74
2022/08/31 06:20:03;;;;;;;3.45;1.25;;;14.00;99.90;;;;;;4995963;28;20027;-74
2022/08/31 06:22:29;;;;;;;1.60;1.25;;;14.00;99.90;;;;;;4995749;28;20042;-74
2022/08/31 06:24:55;;;;;;;4.05;1.45;;;14.10;99.90;;;;;;4995466;28;20030;-74
2022/08/31 06:27:21;;;;;;;2.28;1.33;;;14.20;99.90;;;;;;4995658;28;20427;-74
2022/08/31 06:29:48;;;;;;;4.93;1.10;;;14.30;99.90;;;;;;4995743;28;20077;-74
2022/08/31 06:32:14;;;;;;;5.85;1.50;;;14.40;99.90;;;;;;4995621;28;20061;-74
2022/08/31 06:34:41;;;;;;;1.88;1.45;;;14.40;99.90;;;;;;4995475;28;20030;-74
2022/08/31 06:37:09;;;;;;;7.72;1.50;;;14.50;99.90;;;;;;4995686;28;20113;-74
2022/08/31 06:39:35;;;;;;;3.20;1.80;;;14.50;99.90;;;;;;4995473;28;20022;-74
2022/08/31 06:42:02;;;;;;;5.55;1.42;;;14.60;99.90;;;;;;4994906;28;20038;-74
2022/08/31 06:44:33;;;;;;;3.55;1.38;;;14.70;99.90;;;;;;4995603;28;20023;-74
2022/08/31 06:46:59;;;;;;;5.15;1.33;;;14.70;99.90;;;;;;4995245;28;20414;-74
2022/08/31 06:49:24;;;;;;;2.70;1.20;;;14.80;99.90;;;;;;4993532;28;20089;-74
2022/08/31 06:51:50;;;;;;;3.50;1.60;;;14.80;99.90;;;;;;4992779;28;20540;-74
2022/08/31 06:54:18;;;;;;;4.50;1.60;;;15.00;99.90;;;;;;4994448;28;20034;-74
2022/08/31 06:56:44;;;;;;;3.03;1.27;;;15.10;99.90;;;;;;4993849;28;20029;-74
2022/08/31 06:59:10;;;;;;;5.47;1.77;;;15.10;99.90;;;;;;4994119;28;20371;-74
2022/08/31 07:01:38;;;;;;;4.93;1.30;;;15.20;99.90;;;;;;4994710;28;20062;-74
2022/08/31 07:04:07;;;;;;;1.73;1.13;;;15.20;99.90;;;;;;4992297;28;20033;-74
2022/08/31 07:06:39;;;;;;;4.75;1.25;;;15.30;99.90;;;;;;4991770;28;20033;-74
2022/08/31 07:09:08;;;;;;;2.88;1.20;;;15.30;99.90;;;;;;4994077;28;20026;-74
2022/08/31 07:11:46;;;;;;;3.05;1.17;;;15.40;99.90;;;;;;4993667;28;20475;-74
2022/08/31 07:14:15;;;;;;;9.05;1.58;;;15.50;99.90;;;;;;4992138;28;20068;-75
2022/08/31 07:16:43;;;;;;;3.88;1.35;;;15.60;99.90;;;;;;4994488;28;20026;-74
2022/08/31 07:19:10;;;;;;;7.05;1.50;;;15.70;99.90;;;;;;4992670;28;20018;-74
2022/08/31 07:21:48;;;;;;;8.27;1.55;;;15.80;99.90;;;;;;4993044;28;20869;-74
2022/08/31 07:24:23;;;;;;;5.28;1.23;;;15.90;99.90;;;;;;4993884;28;20023;-74
2022/08/31 07:26:57;;;;;;;7.32;1.40;;;16.00;99.90;;;;;;4994162;28;20046;-74
2022/08/31 07:29:28;;;;;;;4.07;1.13;;;16.10;99.90;;;;;;4993844;28;20026;-74
2022/08/31 07:31:55;;;;;;;5.10;1.20;;;16.10;99.90;;;;;;4994055;28;20114;-74
2022/08/31 07:34:27;;;;;;;4.95;1.33;;;16.30;99.90;;;;;;4991150;28;20026;-74
2022/08/31 07:42:27;;;;;;;4.75;1.27;;;16.60;99.90;;;;;;4991361;28;20041;-74
2022/08/31 07:44:55;;;;;;;6.07;1.48;;;16.80;99.90;;;;;;4993833;28;20053;-74
2022/08/31 07:47:24;;;;;;;6.88;1.40;;;16.80;99.90;;;;;;4992210;28;20031;-74
2022/08/31 07:49:51;;;;;;;6.75;1.40;;;16.90;99.90;;;;;;4993526;28;20077;-74
2022/08/31 07:52:23;;;;;;;3.72;1.13;;;17.00;99.90;;;;;;4993198;28;20030;-74
2022/08/31 07:54:53;;;;;;;;;;;17.10;99.90;;;;;;4993683;28;20026;-74
2022/08/31 07:57:20;;;;;;;6.97;1.50;;;17.20;99.90;;;;;;4992625;28;20289;-74
2022/08/31 07:59:53;;;;;;;4.75;1.83;;;17.30;99.90;;;;;;4993886;28;20030;-74
2022/08/31 08:02:20;;;;;;;6.53;1.45;;;17.40;99.90;;;;;;4993520;28;20042;-74
2022/08/31 08:04:49;;;;;;;3.78;1.20;;;17.50;99.90;;;;;;4993852;28;20028;-74
2022/08/31 08:07:16;;;;;;;2.05;0.90;;;17.60;99.90;;;;;;4993519;28;20023;-74
2022/08/31 08:09:42;;;;;;;5.57;1.42;;;17.80;99.90;;;;;;4992583;28;20096;-75
2022/08/31 08:12:07;;;;;;;4.45;1.30;;;17.90;99.90;;;;;;4993457;28;20057;-75
2022/08/31 08:14:35;;;;;;;3.38;0.98;;;18.00;99.90;;;;;;4993521;28;20387;-74
2022/08/31 08:17:03;;;;;;;4.03;1.23;;;18.10;99.90;;;;;;4993197;28;20033;-74
2022/08/31 08:19:29;;;;;;;4.15;0.90;;;18.20;99.90;;;;;;4993510;28;20022;-74
2022/08/31 08:21:56;;;;;;;3.95;1.17;;;18.30;99.90;;;;;;4993670;28;20041;-74
2022/08/31 08:24:22;;;;;;;5.47;0.90;;;18.40;99.90;;;;;;4992414;28;20023;-75
2022/08/31 08:26:49;;;;;;;5.28;1.00;;;18.60;99.90;;;;;;4992971;28;20030;-75
2022/08/31 08:29:16;;;;;;;3.05;0.85;;;18.70;99.90;;;;;;4993390;28;20483;-74
2022/08/31 08:31:43;;;;;;;3.30;0.90;;;19.00;99.90;;;;;;4992504;28;20027;-79
2022/08/31 08:34:09;;;;;;;6.05;1.30;;;19.10;99.90;;;;;;4993118;28;20037;-76
2022/08/31 08:36:36;;;;;;;3.85;1.00;;;19.30;99.90;;;;;;4990237;28;20054;-77
2022/08/31 08:39:05;;;;;;;2.65;0.80;;;19.50;99.90;;;;;;4993154;28;20027;-77
2022/08/31 08:41:33;;;;;;;4.88;1.17;;;19.70;99.90;;;;;;4990956;28;20030;-75
2022/08/31 08:44:01;;;;;;;7.15;1.08;;;19.80;99.90;;;;;;4992878;28;20057;-75
2022/08/31 08:46:37;;;;;;;3.65;0.98;;;19.90;99.90;;;;;;4991801;28;20038;-76
2022/08/31 08:49:14;;;;;;;3.08;0.90;;;20.00;99.90;;;;;;4991654;28;20030;-74
2022/08/31 08:51:40;;;;;;;2.80;0.80;;;20.10;99.90;;;;;;4992206;28;20026;-75
2022/08/31 08:54:13;;;;;;;5.75;1.00;;;20.10;99.90;;;;;;4992121;28;20018;-75
2022/08/31 08:56:47;;;;;;;2.95;0.85;;;20.20;99.30;;;;;;4991861;28;20034;-75
2022/08/31 08:59:15;;;;;;;2.92;0.80;;;20.20;99.90;;;;;;4992708;28;20022;-75
2022/08/31 09:01:45;;;;;;;7.07;0.95;;;20.30;99.90;;;;;;4991634;28;20026;-75
2022/08/31 09:04:46;;;;;;;1.10;0.75;;;20.30;99.20;;;;;;4990667;28;20061;-76
2022/08/31 09:07:29;;;;;;;1.75;0.68;;;20.50;99.90;;;;;;4991095;28;20394;-75
2022/08/31 09:10:32;;;;;;;6.63;1.00;;;20.60;96.50;;;;;;4989852;28;20056;-74
2022/08/31 09:13:16;;;;;;;5.47;0.90;;;20.60;99.00;;;;;;4992052;28;20030;-75
2022/08/31 09:16:20;;;;;;;4.43;0.90;;;20.90;95.60;;;;;;4991729;28;20022;-75
2022/08/31 09:19:00;;;;;;;2.40;1.10;;;21.00;91.10;;;;;;4976696;28;20035;-75
2022/08/31 09:21:56;;;;;;;6.40;1.45;;;21.10;93.00;;;;;;4977792;28;20074;-74
2022/08/31 09:24:25;;;;;;;6.00;1.02;;;21.40;91.30;;;;;;4992304;28;20027;-75
2022/08/31 09:27:16;;;;;;;6.30;1.13;;;21.90;89.30;;;;;;4990424;28;20391;-75
2022/08/31 09:29:43;;;;;;;6.35;1.13;;;22.40;82.60;;;;;;4992053;28;20019;-75
2022/08/31 09:32:15;;;;;;;5.75;1.02;;;22.90;78.90;;;;;;4992293;28;20026;-74
2022/08/31 09:34:41;;;;;;;2.95;0.82;;;23.00;74.30;;;;;;4992117;28;20015;-75
2022/08/31 09:37:45;;;;;;;6.15;1.02;;;23.10;80.70;;;;;;4991693;28;21406;-74
2022/08/31 09:40:22;;;;;;;5.10;1.20;;;23.20;71.70;;;;;;4980480;28;20056;-75
2022/08/31 09:43:30;;;;;;;1.80;0.68;;;23.90;71.70;;;;;;4991484;28;20049;-74
2022/08/31 09:46:02;;;;;;;8.88;0.90;;;25.10;68.80;;;;;;4990984;28;20041;-75
2022/08/31 09:48:50;;;;;;;1.65;0.70;;;26.90;58.70;;;;;;4990181;28;20115;-75
2022/08/31 09:51:29;;;;;;;4.95;0.73;;;28.20;53.90;;;;;;4976318;28;20054;-75
2022/08/31 09:56:54;;;;;;;6.43;0.77;;;29.30;49.10;;;;;;4985353;28;20042;-75
2022/08/31 09:59:42;;;;;;;2.55;0.60;;;29.80;49.60;;;;;;4991055;28;20022;-75
2022/08/31 10:02:30;;;;;;;6.05;0.88;;;30.60;45.90;;;;;;4991227;28;20081;-75
2022/08/31 10:04:57;;;;;;;6.03;0.95;;;29.70;46.50;;;;;;4991110;28;20495;-75
2022/08/31 10:07:42;;;;;;;4.38;1.25;;;30.30;44.90;;;;;;4991180;28;20068;-75
2022/08/31 10:10:23;;;;;;;3.58;1.13;;;30.60;45.00;;;;;;4991501;28;20015;-75
2022/08/31 10:12:59;;;;;;;2.78;0.60;;;29.80;43.30;;;;;;4990996;28;20390;-74
2022/08/31 10:16:05;;;;;;;5.57;0.70;;;29.50;44.20;;;;;;4991814;28;20014;-75
2022/08/31 10:18:42;;;;;;;4.30;0.85;;;29.60;47.00;;;;;;4949970;29;20118;-75
2022/08/31 10:21:20;;;;;;;2.38;0.70;;;30.00;46.60;;;;;;4987616;28;20077;-75
2022/08/31 10:23:59;;;;;;;3.85;1.20;;;31.00;43.20;;;;;;4991588;28;20030;-75
2022/08/31 10:26:45;;;;;;;7.10;1.00;;;30.90;40.50;;;;;;4991238;28;20026;-75
2022/08/31 10:29:44;;;;;;;2.60;0.93;;;30.40;43.30;;;;;;4991655;28;20069;-75
2022/08/31 10:32:33;;;;;;;4.97;0.85;;;30.60;42.20;;;;;;4991705;28;20052;-75
2022/08/31 10:35:22;;;;;;;3.20;0.90;;;30.90;42.80;;;;;;4985641;28;20030;-75
2022/08/31 10:38:11;;;;;;;4.40;0.60;;;29.70;43.50;;;;;;4991766;28;20518;-74
2022/08/31 10:41:16;;;;;;;2.90;0.90;;;29.30;45.00;;;;;;4991531;28;20033;-74
2022/08/31 10:44:02;;;;;;;5.13;0.85;;;29.40;44.40;;;;;;4990800;28;20043;-74
2022/08/31 10:46:33;;;;;;;3.60;0.60;;;29.50;46.40;;;;;;4991682;28;20042;-75
2022/08/31 10:49:01;;;;;;;3.38;0.80;;;30.10;45.50;;;;;;4991399;28;20062;-75
2022/08/31 10:51:41;;;;;;;6.35;1.10;;;29.90;42.20;;;;;;4990139;28;20080;-74
2022/08/31 13:44:44;;;;;;;2.25;0.52;;;37.20;26.60;;;;;;5068452;28;20407;-74
2022/08/31 13:47:26;;;;;;;4.95;0.45;;;36.10;27.80;;;;;;5040598;28;20026;-74
2022/08/31 13:50:09;;;;;;;2.72;0.55;;;35.30;28.70;;;;;;5039300;28;20426;-74
2022/08/31 13:52:36;;;;;;;2.83;0.80;;;33.90;29.40;;;;;;5037506;28;20500;-74
2022/08/31 13:55:12;;;;;;;1.67;0.50;;;32.50;30.80;;;;;;5039431;28;20026;-74
2022/08/31 13:57:40;;;;;;;3.03;0.60;;;30.80;33.40;;;;;;5037876;28;20025;-73
2022/08/31 14:00:31;;;;;;;2.45;0.63;;;30.10;35.60;;;;;;5041543;28;20129;-74
2022/08/31 14:03:16;;;;;;;7.40;1.20;;;29.40;34.80;;;;;;5047422;28;20100;-73
2022/08/31 14:05:42;;;;;;;1.48;0.30;;;28.80;36.50;;;;;;5047328;28;20669;-73
2022/08/31 14:08:08;;;;;;;1.48;0.43;;;29.10;37.00;;;;;;5047918;28;20017;-73
2022/08/31 14:10:45;;;;;;;1.67;0.40;;;29.60;38.00;;;;;;5047743;28;20055;-73
2022/08/31 14:13:13;;;;;;;2.00;0.40;;;30.50;35.00;;;;;;5048052;28;20115;-73
2022/08/31 14:16:01;;;;;;;1.17;0.30;;;30.90;34.30;;;;;;5047830;28;20029;-73
2022/08/31 14:18:41;;;;;;;2.60;0.40;;;30.90;32.10;;;;;;5048303;28;20033;-73
2022/08/31 14:21:09;;;;;;;1.35;0.45;;;31.30;31.60;;;;;;5047480;28;20021;-73
2022/08/31 14:23:38;;;;;;;0.85;0.30;;;32.00;30.30;;;;;;5047841;28;20393;-73
2022/08/31 14:26:11;;;;;;;1.90;0.40;;;31.50;30.40;;;;;;5047079;28;20085;-73
2022/08/31 14:28:41;;;;;;;1.00;0.50;;;32.30;30.30;;;;;;5047293;28;20021;-73
2022/08/31 14:31:21;;;;;;;0.75;0.40;;;31.70;30.60;;;;;;5047292;28;20052;-73
2022/08/31 14:34:06;;;;;;;2.05;0.57;;;31.70;30.80;;;;;;5047977;28;20051;-73
2022/08/31 14:36:54;;;;;;;1.65;0.20;;;31.00;32.10;;;;;;5047933;28;20139;-73
2022/08/31 14:39:35;;;;;;;5.13;0.60;;;29.30;34.30;;;;;;5047549;28;20030;-73
2022/08/31 14:42:24;;;;;;;4.20;0.38;;;28.70;37.60;;;;;;5047583;28;20024;-73
2022/08/31 14:45:06;;;;;;;2.55;0.40;;;28.20;35.80;;;;;;5047573;28;20056;-73
2022/08/31 14:47:41;;;;;;;3.35;0.55;;;29.40;35.20;;;;;;5046437;28;20018;-74
2022/08/31 14:50:10;;;;;;;2.42;0.40;;;30.60;33.20;;;;;;5047459;28;20087;-73
2022/08/31 14:52:43;;;;;;;2.30;0.50;;;30.00;31.50;;;;;;5046925;28;20112;-73
2022/08/31 14:55:10;;;;;;;1.23;0.50;;;29.30;34.50;;;;;;5038978;28;20025;-73
2022/08/31 14:57:40;;;;;;;2.67;0.30;;;28.80;32.40;;;;;;5033674;28;20448;-73
2022/08/31 15:00:07;;;;;;;1.65;0.28;;;29.10;32.30;;;;;;5033859;28;20048;-73
2022/08/31 15:02:33;;;;;;;2.67;0.52;;;30.00;33.70;;;;;;5033883;28;20437;-73
2022/08/31 15:05:05;;;;;;;1.38;0.30;;;29.90;31.40;;;;;;5033686;28;20105;-73
2022/08/31 15:07:33;;;;;;;2.67;0.40;;;31.80;29.00;;;;;;5032459;28;20026;-73
2022/08/31 15:10:00;;;;;;;3.63;0.40;;;32.50;27.40;;;;;;5031542;28;20021;-74
2022/08/31 15:12:27;;;;;;;1.42;0.20;;;31.80;28.20;;;;;;5032364;28;20634;-74
2022/08/31 15:14:57;;;;;;;4.07;0.50;;;32.90;29.40;;;;;;5032415;28;20022;-74
2022/08/31 15:17:23;;;;;;;3.53;0.30;;;32.10;29.50;;;;;;5031161;28;20022;-73
2022/08/31 15:19:54;;;;;;;1.42;0.40;;;32.50;27.10;;;;;;5032022;28;20123;-74
2022/08/31 15:22:24;;;;;;;2.20;0.28;;;33.50;27.80;;;;;;5032089;28;20489;-73
2022/08/31 15:24:50;;;;;;;2.65;0.40;;;33.60;26.60;;;;;;5022705;28;20446;-73
2022/08/31 15:27:16;;;;;;;2.17;0.50;;;33.70;28.90;;;;;;5023029;28;20037;-73
2022/08/31 15:29:45;;;;;;;1.75;0.60;;;34.20;27.60;;;;;;5032025;28;20496;-73
2022/08/31 15:32:15;;;;;;;1.77;0.60;;;34.70;25.80;;;;;;5031697;28;20030;-74
2022/08/31 15:34:48;;;;;;;1.50;0.38;;;33.90;25.90;;;;;;5031648;28;20110;-74
2022/08/31 15:37:15;;;;;;;2.03;0.32;;;33.00;26.50;;;;;;5024498;28;20032;-74
2022/08/31 15:39:42;;;;;;;2.35;0.30;;;34.40;25.90;;;;;;5027731;28;20404;-73
2022/08/31 15:42:11;;;;;;;2.55;0.45;;;34.40;26.30;;;;;;5026429;28;20029;-79
2022/08/31 15:44:41;;;;;;;3.58;0.32;;;34.40;26.40;;;;;;5029949;28;20215;-76
2022/08/31 15:49:54;;;;;;;3.03;0.38;;;32.40;26.50;;;;;;5024276;28;20749;-77
2022/08/31 15:52:26;;;;;;;1.48;0.40;;;32.30;27.40;;;;;;5028261;28;20112;-76
2022/08/31 15:54:53;;;;;;;1.75;0.30;;;32.10;28.10;;;;;;5028768;28;20059;-76
2022/08/31 15:57:22;;;;;;;2.10;0.30;;;32.40;28.90;;;;;;5029711;28;20496;-75
2022/08/31 15:59:48;;;;;;;2.58;0.43;;;32.80;30.00;;;;;;5029522;28;20116;-75
2022/08/31 16:30:46;;;;;;;3.15;0.40;;;26.80;34.00;;;;;;5095181;27;20403;-73
2022/08/31 16:33:12;;;;;;;5.13;0.43;;;26.20;34.70;;;;;;5061671;28;20488;-75
2022/08/31 16:35:38;;;;;;;3.67;0.30;;;25.70;36.30;;;;;;5064257;28;20063;-76
2022/08/31 16:38:04;;;;;;;0.73;0.30;;;25.50;36.30;;;;;;5067150;28;20016;-73